Terminal Aerodrome Forecast
Issued by NWS

Home | Current Version | Previous Version | Text Only | Print | Product List | Glossary On
Versions: 1 2 3 4 5 6 7 8 9 10 11 12 13 14 15 16 17 18 19 20 21 22 23 24 25 26 27 28 29 30 31 32 33 34 35 36 37 38 39 40
000
FTUS45 KGJT 260545
TAFEGE
TAF
KEGE 260545Z 2606/2706 00000KT P6SM VCSH SCT045 OVC060
      TEMPO 2606/2608 -SHRA BKN045
     FM260800 00000KT P6SM VCSH SCT050 BKN070
     FM261000 00000KT P6SM SCT080
     FM261900 23010KT P6SM VCTS SCT070 BKN100CB
      AMD LTD TO CLD VIS AND WIND TIL 261300=

USA.gov is the U.S. government's official web portal to all federal, state and local government web resources and services.